Time;durP1;ratioP1;P1;durP2;ratioP2;P2;SDS_P1;SDS_P2;PMS_P1;PMS_P2;Temp;Humidity;BMP_temperature;BMP_pressure;BME280_temperature;BME280_humidity;BME280_pressure;Samples;Min_cycle;Max_cycle;Signal;HPM_P1;HPM_P2
2023/04/08 00:00:05;;;;;;;299.38;105.95;;;;;;;;;;5059912;28;20028;-85
2023/04/08 00:02:30;;;;;;;302.05;104.85;;;;;;;;;;5076799;28;20040;-86
2023/04/08 00:04:56;;;;;;;299.02;103.07;;;;;;;;;;5081385;28;20072;-86
2023/04/08 00:07:21;;;;;;;306.00;106.43;;;;;;;;;;5113074;28;20042;-85
2023/04/08 00:09:47;;;;;;;318.25;109.82;;;;;;;;;;5112561;28;20073;-85
2023/04/08 00:12:12;;;;;;;316.45;109.97;;;;;;;;;;5108187;28;20028;-85
2023/04/08 00:14:39;;;;;;;324.25;112.85;;;;;;;;;;5076339;28;20118;-85
2023/04/08 00:17:05;;;;;;;345.30;117.07;;;;;;;;;;5100855;28;20019;-83
2023/04/08 00:19:30;;;;;;;310.83;111.22;;;;;;;;;;5077973;28;20036;-87
2023/04/08 00:21:56;;;;;;;314.67;108.78;;;;;;;;;;5076671;28;20032;-86
2023/04/08 00:24:21;;;;;;;340.27;116.53;;;;;;;;;;5094568;28;20032;-86
2023/04/08 00:26:46;;;;;;;350.40;119.20;;;;;;;;;;5059480;28;20028;-84
2023/04/08 00:29:13;;;;;;;355.08;120.72;;;;;;;;;;5044336;28;20032;-85
2023/04/08 00:31:38;;;;;;;357.45;125.40;;;;;;;;;;5084760;28;20059;-86
2023/04/08 00:34:03;;;;;;;372.25;124.53;;;;;;;;;;5094317;28;20031;-85
2023/04/08 00:36:29;;;;;;;366.00;122.75;;;;;;;;;;5094401;28;20043;-86
2023/04/08 00:38:55;;;;;;;344.48;118.18;;;;;;;;;;5094480;28;20310;-86
2023/04/08 00:41:20;;;;;;;347.90;120.75;;;;;;;;;;5094439;28;20042;-85
2023/04/08 00:43:46;;;;;;;322.85;111.05;;;;;;;;;;5075987;28;20361;-86
2023/04/08 00:46:12;;;;;;;300.98;102.97;;;;;;;;;;5076066;28;20089;-86
2023/04/08 00:48:37;;;;;;;278.80;95.43;;;;;;;;;;5077819;28;20465;-85
2023/04/08 00:51:03;;;;;;;269.20;91.97;;;;;;;;;;5082553;28;20460;-83
2023/04/08 00:53:29;;;;;;;272.55;94.13;;;;;;;;;;5084484;28;20331;-86
2023/04/08 00:55:55;;;;;;;283.45;97.45;;;;;;;;;;5095620;28;20093;-86
2023/04/08 00:58:20;;;;;;;278.35;94.47;;;;;;;;;;5094212;28;20016;-86
2023/04/08 01:00:51;;;;;;;243.38;85.03;;;;;;;;;;5076335;28;20028;-86
2023/04/08 01:03:23;;;;;;;256.92;90.55;;;;;;;;;;5039577;28;20442;-84
2023/04/08 01:06:12;;;;;;;237.57;83.90;;;;;;;;;;5056817;28;20063;-85
2023/04/08 01:08:38;;;;;;;266.52;88.35;;;;;;;;;;5055732;28;20397;-85
2023/04/08 01:11:05;;;;;;;265.95;85.22;;;;;;;;;;5055998;28;20102;-86
2023/04/08 01:13:34;;;;;;;235.00;79.35;;;;;;;;;;5050354;28;20032;-85
2023/04/08 01:15:59;;;;;;;234.10;79.53;;;;;;;;;;5056153;28;20032;-85
2023/04/08 01:18:25;;;;;;;221.55;77.22;;;;;;;;;;5038914;28;20045;-85
2023/04/08 01:20:50;;;;;;;240.40;76.70;;;;;;;;;;5073396;28;20119;-86
2023/04/08 01:23:30;;;;;;;214.70;74.72;;;;;;;;;;5057307;28;20112;-85
2023/04/08 01:25:56;;;;;;;226.52;75.10;;;;;;;;;;5060819;28;20441;-85
2023/04/08 01:28:22;;;;;;;207.85;72.72;;;;;;;;;;5059364;28;20043;-85
2023/04/08 01:30:48;;;;;;;202.77;69.78;;;;;;;;;;5059548;28;20089;-85
2023/04/08 01:33:14;;;;;;;195.13;66.13;;;;;;;;;;5067234;28;20024;-87
2023/04/08 01:35:40;;;;;;;185.75;67.00;;;;;;;;;;5061587;28;20020;-86
2023/04/08 01:38:09;;;;;;;185.90;64.43;;;;;;;;;;5077678;28;20462;-86
2023/04/08 01:40:34;;;;;;;169.65;60.47;;;;;;;;;;5059239;28;20033;-84
2023/04/08 01:43:00;;;;;;;167.75;60.35;;;;;;;;;;5042384;28;20025;-85
2023/04/08 01:45:26;;;;;;;166.30;60.50;;;;;;;;;;5042750;28;20020;-86
2023/04/08 01:47:52;;;;;;;173.20;63.00;;;;;;;;;;5059520;28;20055;-85
2023/04/08 01:50:17;;;;;;;163.45;61.75;;;;;;;;;;5076298;28;20062;-85
2023/04/08 01:52:43;;;;;;;164.18;60.22;;;;;;;;;;5055856;28;20099;-85
2023/04/08 01:55:09;;;;;;;155.55;56.42;;;;;;;;;;5064114;28;20139;-85
2023/04/08 01:57:36;;;;;;;141.98;53.65;;;;;;;;;;5058919;28;20033;-85
2023/04/08 02:00:04;;;;;;;148.27;56.60;;;;;;;;;;5059023;28;20035;-85
2023/04/08 02:02:30;;;;;;;143.52;53.40;;;;;;;;;;5058967;28;20446;-85
2023/04/08 02:04:55;;;;;;;139.07;53.15;;;;;;;;;;5075417;28;20078;-85
2023/04/08 02:07:21;;;;;;;125.28;48.53;;;;;;;;;;5058915;28;20028;-86
2023/04/08 02:09:46;;;;;;;127.95;49.67;;;;;;;;;;5075612;28;20042;-85
2023/04/08 02:12:12;;;;;;;133.90;51.00;;;;;;;;;;5076411;28;20039;-85
2023/04/08 02:14:37;;;;;;;129.52;51.30;;;;;;;;;;5079326;28;20029;-84
2023/04/08 02:17:14;;;;;;;126.63;50.95;;;;;;;;;;5065620;28;20064;-85
2023/04/08 02:19:56;;;;;;;131.15;52.47;;;;;;;;;;5058436;28;20139;-86
2023/04/08 02:22:36;;;;;;;133.05;52.55;;;;;;;;;;5075209;28;20032;-85
2023/04/08 02:25:03;;;;;;;129.07;52.05;;;;;;;;;;5075075;28;20085;-84
2023/04/08 02:27:28;;;;;;;131.18;51.17;;;;;;;;;;5058312;28;20039;-85
2023/04/08 02:29:54;;;;;;;124.07;51.20;;;;;;;;;;5058250;28;20024;-86
2023/04/08 02:32:19;;;;;;;123.55;50.58;;;;;;;;;;5058483;28;20034;-86
2023/04/08 02:34:45;;;;;;;121.90;51.05;;;;;;;;;;5059323;28;20028;-85
2023/04/08 02:37:10;;;;;;;120.03;50.67;;;;;;;;;;5075566;28;20103;-86
2023/04/08 02:39:35;;;;;;;111.68;48.28;;;;;;;;;;5076774;28;20109;-85
2023/04/08 02:42:01;;;;;;;113.53;48.97;;;;;;;;;;5058982;28;20070;-85
2023/04/08 02:44:26;;;;;;;110.32;47.17;;;;;;;;;;5076186;28;20125;-86
2023/04/08 02:46:52;;;;;;;108.35;46.33;;;;;;;;;;5075896;28;20028;-85
2023/04/08 02:49:17;;;;;;;116.38;47.38;;;;;;;;;;5076292;28;20029;-85
2023/04/08 02:51:42;;;;;;;106.68;46.65;;;;;;;;;;5075818;28;20510;-84
2023/04/08 02:54:08;;;;;;;108.93;46.33;;;;;;;;;;5079801;28;20115;-85
2023/04/08 02:56:33;;;;;;;104.15;45.22;;;;;;;;;;5133551;28;20027;-84
2023/04/08 02:58:59;;;;;;;109.72;46.42;;;;;;;;;;5128749;28;20031;-85
2023/04/08 03:01:24;;;;;;;109.03;46.80;;;;;;;;;;5116388;28;20035;-85
2023/04/08 03:03:50;;;;;;;99.68;45.03;;;;;;;;;;5116147;28;20032;-86
2023/04/08 03:06:15;;;;;;;106.28;46.10;;;;;;;;;;5116402;28;20115;-85
2023/04/08 03:08:41;;;;;;;107.40;46.33;;;;;;;;;;5116133;28;20473;-86
2023/04/08 03:11:06;;;;;;;103.63;45.03;;;;;;;;;;5097972;28;20039;-85
2023/04/08 03:13:33;;;;;;;102.57;44.53;;;;;;;;;;5116083;28;20056;-85
2023/04/08 03:16:01;;;;;;;100.60;44.90;;;;;;;;;;5097546;28;20036;-86
2023/04/08 03:18:26;;;;;;;111.25;47.45;;;;;;;;;;5087934;28;20039;-81
2023/04/08 03:20:52;;;;;;;99.03;45.42;;;;;;;;;;5123695;28;20365;-85
2023/04/08 03:23:17;;;;;;;93.85;44.03;;;;;;;;;;5115382;28;20131;-86
2023/04/08 03:25:43;;;;;;;95.97;42.35;;;;;;;;;;5115698;28;20058;-86
2023/04/08 03:28:08;;;;;;;91.93;42.10;;;;;;;;;;5115614;28;20066;-85
2023/04/08 03:30:34;;;;;;;95.55;44.80;;;;;;;;;;5115893;28;20031;-85
2023/04/08 03:32:59;;;;;;;93.72;44.55;;;;;;;;;;5097752;28;20032;-86
2023/04/08 03:35:25;;;;;;;96.00;43.38;;;;;;;;;;5119003;28;20027;-85
2023/04/08 03:37:50;;;;;;;97.00;42.92;;;;;;;;;;5132503;28;20036;-83
2023/04/08 03:40:15;;;;;;;92.10;43.10;;;;;;;;;;5119992;28;20085;-85
2023/04/08 03:42:41;;;;;;;89.57;42.13;;;;;;;;;;5115706;28;20035;-85
2023/04/08 03:45:07;;;;;;;91.00;41.08;;;;;;;;;;5115509;28;20108;-85
2023/04/08 03:47:33;;;;;;;83.88;40.63;;;;;;;;;;5114475;28;20066;-85
2023/04/08 03:49:58;;;;;;;85.25;40.63;;;;;;;;;;5097205;28;20073;-85
2023/04/08 03:52:24;;;;;;;86.80;41.30;;;;;;;;;;5115172;28;20035;-85
2023/04/08 03:54:49;;;;;;;89.60;41.58;;;;;;;;;;5104526;28;20085;-86
2023/04/08 03:57:14;;;;;;;89.43;42.53;;;;;;;;;;5105431;28;20066;-85
2023/04/08 03:59:40;;;;;;;88.22;42.25;;;;;;;;;;5102159;28;20092;-85
2023/04/08 04:02:05;;;;;;;85.80;41.83;;;;;;;;;;5094259;28;20058;-86
2023/04/08 04:04:31;;;;;;;89.07;42.92;;;;;;;;;;5094654;28;20047;-85
2023/04/08 04:06:56;;;;;;;87.43;44.08;;;;;;;;;;5076463;28;20063;-84
2023/04/08 04:09:22;;;;;;;89.60;43.00;;;;;;;;;;5076558;28;20038;-87
2023/04/08 04:11:47;;;;;;;84.80;42.63;;;;;;;;;;5094634;28;20438;-84
2023/04/08 04:14:13;;;;;;;85.93;43.30;;;;;;;;;;5076025;28;20495;-85
2023/04/08 04:16:38;;;;;;;87.65;42.67;;;;;;;;;;5076494;28;20040;-85
2023/04/08 04:19:04;;;;;;;82.80;40.72;;;;;;;;;;5089350;28;20040;-83
2023/04/08 04:21:30;;;;;;;86.15;40.88;;;;;;;;;;5097885;28;20090;-84
2023/04/08 04:23:55;;;;;;;85.65;41.08;;;;;;;;;;5094333;28;20122;-85
2023/04/08 04:26:21;;;;;;;88.35;42.13;;;;;;;;;;5094167;28;20511;-86
2023/04/08 04:28:46;;;;;;;87.20;41.72;;;;;;;;;;5076147;28;20134;-85
2023/04/08 04:31:22;;;;;;;85.22;40.90;;;;;;;;;;5076155;28;20032;-85
2023/04/08 04:33:48;;;;;;;85.72;40.60;;;;;;;;;;5094241;28;20036;-86
2023/04/08 04:36:14;;;;;;;82.55;42.08;;;;;;;;;;5076083;28;20032;-85
2023/04/08 04:38:39;;;;;;;81.50;40.28;;;;;;;;;;5094378;28;20031;-85
2023/04/08 04:41:05;;;;;;;84.10;41.45;;;;;;;;;;5092270;28;20089;-86
2023/04/08 04:43:30;;;;;;;83.88;38.42;;;;;;;;;;5076339;28;20138;-87
2023/04/08 04:45:56;;;;;;;78.25;39.15;;;;;;;;;;5076246;28;20024;-86
2023/04/08 04:48:22;;;;;;;83.32;40.50;;;;;;;;;;5076863;28;20028;-86
2023/04/08 04:50:57;;;;;;;80.30;40.05;;;;;;;;;;5076304;28;20116;-85
2023/04/08 04:53:23;;;;;;;79.20;39.20;;;;;;;;;;5095295;28;20093;-86
2023/04/08 04:55:49;;;;;;;76.20;39.50;;;;;;;;;;5108258;28;20028;-87
2023/04/08 04:58:18;;;;;;;74.53;37.22;;;;;;;;;;5109403;28;20342;-87
2023/04/08 05:00:43;;;;;;;77.05;37.75;;;;;;;;;;5106076;28;20468;-84
2023/04/08 05:03:09;;;;;;;79.43;37.40;;;;;;;;;;5102480;28;20032;-86
2023/04/08 05:05:34;;;;;;;71.82;36.28;;;;;;;;;;5079715;28;20035;-86
2023/04/08 05:08:00;;;;;;;72.25;36.17;;;;;;;;;;5079768;28;20529;-87
2023/04/08 05:10:25;;;;;;;69.90;35.80;;;;;;;;;;5079916;28;20020;-85
2023/04/08 05:12:51;;;;;;;67.15;35.53;;;;;;;;;;5079803;28;20024;-85
2023/04/08 05:15:16;;;;;;;66.05;35.20;;;;;;;;;;5097969;28;20123;-85
2023/04/08 05:17:42;;;;;;;67.80;35.65;;;;;;;;;;5097566;28;20020;-86
2023/04/08 05:20:07;;;;;;;73.13;35.97;;;;;;;;;;5079733;28;20032;-86
2023/04/08 05:22:33;;;;;;;65.07;34.17;;;;;;;;;;5076922;28;20040;-85
2023/04/08 05:25:00;;;;;;;69.95;33.30;;;;;;;;;;5099371;28;20024;-87
2023/04/08 05:27:26;;;;;;;75.03;37.28;;;;;;;;;;5079907;28;20028;-85
2023/04/08 05:29:52;;;;;;;81.25;42.67;;;;;;;;;;5079320;28;20024;-85
2023/04/08 05:32:17;;;;;;;81.90;42.45;;;;;;;;;;5079191;28;20031;-85
2023/04/08 05:34:43;;;;;;;79.45;41.17;;;;;;;;;;5097679;28;20024;-85
2023/04/08 05:37:09;;;;;;;77.97;39.15;;;;;;;;;;5046811;28;20481;-85
2023/04/08 05:39:35;;;;;;;68.28;37.70;;;;;;;;;;5080474;28;20060;-86
2023/04/08 05:42:00;;;;;;;73.85;38.25;;;;;;;;;;5097824;28;20039;-86
2023/04/08 05:44:25;;;;;;;70.82;36.75;;;;;;;;;;5087403;28;20059;-86
2023/04/08 05:46:51;;;;;;;70.95;38.22;;;;;;;;;;5097931;28;20031;-84
2023/04/08 05:49:16;;;;;;;77.85;40.40;;;;;;;;;;5078897;28;20020;-84
2023/04/08 05:51:42;;;;;;;74.05;39.35;;;;;;;;;;5079716;28;20024;-87
2023/04/08 05:54:08;;;;;;;73.60;36.88;;;;;;;;;;5098532;28;20032;-87
2023/04/08 05:56:33;;;;;;;71.20;36.42;;;;;;;;;;5085694;28;20123;-86
2023/04/08 05:58:59;;;;;;;64.82;34.97;;;;;;;;;;5102705;28;20024;-87
2023/04/08 06:01:31;;;;;;;71.63;36.40;;;;;;;;;;5079087;28;20468;-86
2023/04/08 06:03:57;;;;;;;70.72;37.30;;;;;;;;;;5101590;28;20031;-88
2023/04/08 06:06:24;;;;;;;65.80;36.72;;;;;;;;;;5101970;28;20024;-87
2023/04/08 06:08:49;;;;;;;85.85;45.97;;;;;;;;;;5060651;28;20032;-86
2023/04/08 06:11:15;;;;;;;69.25;38.58;;;;;;;;;;5077741;28;20028;-86
2023/04/08 06:13:41;;;;;;;61.72;35.25;;;;;;;;;;5078713;28;20028;-87
2023/04/08 06:16:16;;;;;;;70.07;36.15;;;;;;;;;;5096959;28;20063;-86
2023/04/08 06:18:42;;;;;;;95.50;48.08;;;;;;;;;;5096161;28;20066;-86
2023/04/08 06:21:08;;;;;;;59.15;34.92;;;;;;;;;;5045254;28;20063;-87
2023/04/08 06:23:34;;;;;;;57.85;33.80;;;;;;;;;;5077786;28;20449;-85
2023/04/08 06:25:59;;;;;;;55.33;31.40;;;;;;;;;;5074163;28;20040;-85
2023/04/08 06:28:25;;;;;;;55.22;31.33;;;;;;;;;;5097853;28;20393;-85
2023/04/08 06:30:50;;;;;;;52.50;30.10;;;;;;;;;;5095408;28;20030;-85
2023/04/08 06:33:16;;;;;;;53.28;30.17;;;;;;;;;;5061122;28;20032;-84
2023/04/08 06:35:41;;;;;;;46.15;28.50;;;;;;;;;;5097248;28;20044;-87
2023/04/08 06:38:07;;;;;;;55.33;34.47;;;;;;;;;;5096680;28;20028;-86
2023/04/08 06:40:32;;;;;;;47.28;30.15;;;;;;;;;;5079344;28;20016;-87
2023/04/08 06:42:58;;;;;;;46.38;28.60;;;;;;;;;;5096330;28;20123;-86
2023/04/08 06:45:23;;;;;;;47.22;27.70;;;;;;;;;;5100021;28;20052;-85
2023/04/08 06:47:49;;;;;;;48.15;28.23;;;;;;;;;;5107779;28;20059;-85
2023/04/08 06:50:15;;;;;;;44.20;26.08;;;;;;;;;;5096634;28;20059;-85
2023/04/08 06:52:40;;;;;;;47.40;27.17;;;;;;;;;;5096957;28;20042;-87
2023/04/08 06:55:06;;;;;;;45.80;27.55;;;;;;;;;;5089774;28;20524;-87
2023/04/08 06:57:32;;;;;;;39.13;25.70;;;;;;;;;;5098900;28;20076;-88
2023/04/08 06:59:59;;;;;;;46.78;27.17;;;;;;;;;;5117328;28;20534;-86
2023/04/08 07:02:25;;;;;;;45.47;27.70;;;;;;;;;;5105034;28;20089;-86
2023/04/08 07:04:50;;;;;;;42.08;26.25;;;;;;;;;;5097311;28;20028;-86
2023/04/08 07:07:16;;;;;;;56.67;33.15;;;;;;;;;;5108082;28;20088;-86
2023/04/08 07:09:44;;;;;;;51.92;29.33;;;;;;;;;;5082550;28;20106;-84
2023/04/08 07:12:10;;;;;;;42.50;26.63;;;;;;;;;;5065427;28;20035;-84
2023/04/08 07:14:36;;;;;;;43.67;26.85;;;;;;;;;;5101925;28;20027;-86
2023/04/08 07:17:01;;;;;;;42.22;26.30;;;;;;;;;;5101697;28;20028;-87
2023/04/08 07:19:27;;;;;;;38.78;25.42;;;;;;;;;;5103415;28;20036;-85
2023/04/08 07:21:52;;;;;;;39.92;26.42;;;;;;;;;;5089840;28;20048;-85
2023/04/08 07:24:18;;;;;;;42.55;26.23;;;;;;;;;;5111467;28;20083;-85
2023/04/08 07:26:43;;;;;;;39.47;26.77;;;;;;;;;;5111511;28;20028;-85
2023/04/08 07:29:09;;;;;;;45.83;28.67;;;;;;;;;;5105878;28;20039;-85
2023/04/08 07:31:34;;;;;;;39.97;23.27;;;;;;;;;;5080509;28;20089;-86
2023/04/08 07:34:00;;;;;;;35.83;24.50;;;;;;;;;;5077467;28;20059;-86
2023/04/08 07:36:25;;;;;;;36.95;24.83;;;;;;;;;;5095897;28;20020;-90
2023/04/08 07:38:51;;;;;;;38.15;25.75;;;;;;;;;;5061058;28;20032;-86
2023/04/08 07:41:16;;;;;;;39.33;25.40;;;;;;;;;;5079710;28;20315;-86
2023/04/08 07:43:41;;;;;;;37.15;25.27;;;;;;;;;;5098686;28;20391;-86
2023/04/08 07:46:07;;;;;;;43.50;25.63;;;;;;;;;;5097389;28;20028;-88
2023/04/08 07:48:33;;;;;;;37.47;24.95;;;;;;;;;;5104419;28;20016;-84
2023/04/08 07:51:05;;;;;;;41.42;26.65;;;;;;;;;;5052469;28;20028;-89
2023/04/08 07:53:32;;;;;;;40.60;25.33;;;;;;;;;;5096918;28;20077;-85
2023/04/08 07:55:57;;;;;;;44.08;26.33;;;;;;;;;;5097539;28;20058;-86
2023/04/08 07:58:23;;;;;;;42.40;26.90;;;;;;;;;;5096791;28;20020;-87
2023/04/08 08:00:49;;;;;;;47.85;26.20;;;;;;;;;;5084599;28;20019;-86
2023/04/08 08:03:15;;;;;;;41.22;26.38;;;;;;;;;;5094699;28;20530;-85
2023/04/08 08:05:40;;;;;;;43.40;25.92;;;;;;;;;;5088376;28;20028;-86
2023/04/08 08:08:06;;;;;;;41.47;24.40;;;;;;;;;;5115498;28;20024;-87
2023/04/08 08:10:32;;;;;;;44.05;26.48;;;;;;;;;;5126872;28;20046;-85
2023/04/08 08:12:58;;;;;;;44.10;28.33;;;;;;;;;;5085775;28;20034;-84
2023/04/08 08:15:23;;;;;;;40.42;25.48;;;;;;;;;;5099100;28;20036;-87
2023/04/08 08:17:49;;;;;;;42.17;24.98;;;;;;;;;;5118311;28;20092;-84
2023/04/08 08:20:15;;;;;;;42.70;25.98;;;;;;;;;;5100305;28;20035;-85
2023/04/08 08:22:41;;;;;;;41.92;24.85;;;;;;;;;;5117329;28;20027;-85
2023/04/08 08:25:08;;;;;;;43.80;25.60;;;;;;;;;;5107417;28;20084;-84
2023/04/08 08:27:34;;;;;;;52.42;28.30;;;;;;;;;;5122594;28;20047;-87
2023/04/08 08:29:59;;;;;;;44.42;26.38;;;;;;;;;;5099218;28;20467;-86
2023/04/08 08:32:31;;;;;;;46.30;26.58;;;;;;;;;;5131894;28;20032;-85
2023/04/08 08:34:57;;;;;;;45.55;26.33;;;;;;;;;;5099733;28;20114;-86
2023/04/08 08:37:23;;;;;;;43.92;26.13;;;;;;;;;;5124049;28;20056;-85
2023/04/08 08:39:48;;;;;;;44.50;24.50;;;;;;;;;;5104342;28;20038;-85
2023/04/08 08:42:23;;;;;;;43.67;25.55;;;;;;;;;;5104185;28;20039;-87
2023/04/08 08:44:49;;;;;;;39.65;24.10;;;;;;;;;;5104223;28;20063;-86
2023/04/08 08:47:15;;;;;;;41.40;24.65;;;;;;;;;;5096829;28;20028;-85
2023/04/08 08:49:41;;;;;;;44.92;26.35;;;;;;;;;;5116786;28;20394;-90
2023/04/08 08:52:06;;;;;;;46.92;25.27;;;;;;;;;;5101257;28;20067;-86
2023/04/08 08:54:32;;;;;;;47.35;26.08;;;;;;;;;;5131050;28;20031;-87
2023/04/08 08:56:57;;;;;;;41.95;23.27;;;;;;;;;;5078252;28;20024;-86
2023/04/08 08:59:23;;;;;;;36.92;23.52;;;;;;;;;;5115860;28;20481;-86
2023/04/08 09:01:48;;;;;;;39.13;24.38;;;;;;;;;;5113506;28;20120;-91
2023/04/08 09:04:18;;;;;;;50.42;22.77;;;;;;;;;;5115203;28;20122;-87
2023/04/08 09:07:07;;;;;;;38.83;23.55;;;;;;;;;;5095546;28;20031;-91
2023/04/08 09:09:49;;;;;;;40.67;25.00;;;;;;;;;;5076051;28;20444;-86
2023/04/08 09:12:14;;;;;;;37.05;22.90;;;;;;;;;;5059696;28;20028;-86
2023/04/08 09:14:40;;;;;;;41.75;24.40;;;;;;;;;;5093242;28;20034;-86
2023/04/08 09:17:06;;;;;;;42.20;23.30;;;;;;;;;;5101102;28;20020;-89
2023/04/08 09:19:31;;;;;;;40.25;24.42;;;;;;;;;;5063066;28;20066;-95
2023/04/08 09:22:07;;;;;;;39.30;23.75;;;;;;;;;;5093762;28;20032;-88
2023/04/08 09:24:33;;;;;;;40.90;25.85;;;;;;;;;;5076203;28;20089;-93
2023/04/08 09:26:58;;;;;;;40.35;24.67;;;;;;;;;;5094452;28;20445;-87
2023/04/08 09:29:25;;;;;;;39.08;23.77;;;;;;;;;;5095872;28;20454;-88
2023/04/08 09:31:57;;;;;;;43.08;25.17;;;;;;;;;;5094477;28;20043;-86
2023/04/08 09:34:24;;;;;;;43.00;24.67;;;;;;;;;;5077729;28;20035;-84
2023/04/08 09:36:50;;;;;;;44.92;24.63;;;;;;;;;;5080650;28;20314;-87
2023/04/08 09:39:17;;;;;;;46.85;26.27;;;;;;;;;;5078307;28;20034;-86
2023/04/08 09:41:43;;;;;;;41.60;25.08;;;;;;;;;;5093270;28;20449;-84
2023/04/08 09:44:10;;;;;;;42.08;25.02;;;;;;;;;;5062115;28;20035;-87
2023/04/08 09:46:53;;;;;;;43.40;26.58;;;;;;;;;;5079559;28;20036;-87
2023/04/08 09:49:28;;;;;;;44.22;24.42;;;;;;;;;;5098343;28;20353;-87
2023/04/08 09:51:59;;;;;;;42.38;25.40;;;;;;;;;;5081626;28;20361;-88
2023/04/08 09:54:49;;;;;;;42.72;24.40;;;;;;;;;;5089772;28;20016;-87
2023/04/08 09:57:35;;;;;;;44.05;23.60;;;;;;;;;;5098214;28;20048;-87
2023/04/08 10:00:42;;;;;;;37.55;23.08;;;;;;;;;;5102902;28;20109;-89
2023/04/08 10:03:29;;;;;;;40.75;23.17;;;;;;;;;;5107379;28;20082;-87
2023/04/08 10:05:55;;;;;;;37.90;23.27;;;;;;;;;;5086806;28;20019;-87
2023/04/08 10:08:24;;;;;;;38.13;23.45;;;;;;;;;;5116305;28;20032;-87
2023/04/08 10:10:49;;;;;;;39.55;23.05;;;;;;;;;;5097960;28;20035;-89
2023/04/08 10:13:15;;;;;;;40.22;23.08;;;;;;;;;;5061240;28;20024;-88
2023/04/08 10:15:42;;;;;;;38.17;24.08;;;;;;;;;;5090375;28;20012;-91
2023/04/08 10:18:11;;;;;;;37.45;23.63;;;;;;;;;;5100873;28;20023;-86
2023/04/08 10:20:36;;;;;;;44.17;27.38;;;;;;;;;;5111336;28;20032;-88
2023/04/08 10:23:08;;;;;;;43.65;25.45;;;;;;;;;;5102572;28;20036;-86
2023/04/08 10:25:34;;;;;;;44.70;25.90;;;;;;;;;;5079319;28;20039;-87
2023/04/08 10:28:02;;;;;;;44.17;26.25;;;;;;;;;;5098544;28;20036;-89
2023/04/08 10:30:27;;;;;;;44.80;26.17;;;;;;;;;;5097385;28;20032;-86
2023/04/08 10:32:59;;;;;;;42.90;26.48;;;;;;;;;;5096964;28;20044;-88
2023/04/08 10:35:44;;;;;;;50.00;26.90;;;;;;;;;;5099442;28;20020;-83
2023/04/08 10:38:12;;;;;;;42.25;26.38;;;;;;;;;;5117678;28;20036;-85
2023/04/08 10:40:38;;;;;;;43.72;25.38;;;;;;;;;;5068290;28;20039;-90
2023/04/08 10:43:04;;;;;;;43.45;26.92;;;;;;;;;;5083027;28;20036;-87
2023/04/08 10:45:30;;;;;;;48.63;25.70;;;;;;;;;;5077482;28;20123;-86
2023/04/08 10:47:55;;;;;;;44.78;27.20;;;;;;;;;;5100608;28;20059;-91
2023/04/08 10:50:22;;;;;;;45.58;26.75;;;;;;;;;;5115599;28;20440;-88
2023/04/08 10:52:52;;;;;;;47.05;27.25;;;;;;;;;;5079938;28;20160;-87
2023/04/08 10:55:25;;;;;;;45.17;27.27;;;;;;;;;;5115625;28;20040;-89
2023/04/08 10:57:51;;;;;;;45.60;27.63;;;;;;;;;;5119615;28;20047;-87
2023/04/08 11:00:17;;;;;;;44.42;25.65;;;;;;;;;;5129126;28;20024;-88
2023/04/08 11:02:43;;;;;;;40.92;24.60;;;;;;;;;;5119945;28;20092;-89
2023/04/08 11:05:11;;;;;;;44.30;26.38;;;;;;;;;;5099088;28;20028;-91
2023/04/08 11:07:40;;;;;;;44.55;25.80;;;;;;;;;;5116651;28;20039;-85
2023/04/08 11:10:07;;;;;;;39.40;24.77;;;;;;;;;;5045747;28;20028;-93
2023/04/08 11:12:32;;;;;;;40.53;25.23;;;;;;;;;;5057902;28;20356;-88
2023/04/08 11:14:58;;;;;;;43.60;26.48;;;;;;;;;;5041126;28;20040;-88
2023/04/08 11:17:23;;;;;;;50.65;26.80;;;;;;;;;;5075814;28;20028;-92
2023/04/08 11:19:50;;;;;;;44.92;25.63;;;;;;;;;;5055956;28;20051;-83
2023/04/08 11:22:16;;;;;;;44.67;25.52;;;;;;;;;;5079494;28;20048;-88
2023/04/08 11:24:41;;;;;;;44.38;25.38;;;;;;;;;;5042157;28;20032;-90
2023/04/08 11:27:07;;;;;;;43.38;25.95;;;;;;;;;;5059550;28;20484;-85
2023/04/08 11:29:32;;;;;;;49.83;27.45;;;;;;;;;;5041328;28;20513;-86
2023/04/08 11:31:58;;;;;;;45.67;26.15;;;;;;;;;;5057352;28;20120;-87
2023/04/08 11:34:23;;;;;;;45.15;25.30;;;;;;;;;;5075358;28;20107;-86
2023/04/08 11:36:49;;;;;;;43.85;26.65;;;;;;;;;;5040413;28;20404;-88
2023/04/08 11:39:15;;;;;;;45.17;26.95;;;;;;;;;;5078699;28;20036;-87
2023/04/08 11:41:40;;;;;;;48.65;27.88;;;;;;;;;;5088040;28;20037;-91
2023/04/08 11:44:06;;;;;;;47.88;27.55;;;;;;;;;;5040925;28;20029;-93
2023/04/08 11:46:32;;;;;;;43.95;27.00;;;;;;;;;;5024399;28;20028;-86
2023/04/08 11:48:59;;;;;;;44.17;25.20;;;;;;;;;;5057269;28;20373;-87
2023/04/08 11:51:25;;;;;;;45.75;26.42;;;;;;;;;;5057099;28;20043;-88
2023/04/08 11:53:50;;;;;;;47.83;29.30;;;;;;;;;;5057506;28;20016;-93
2023/04/08 11:56:21;;;;;;;42.00;24.20;;;;;;;;;;5059762;28;20029;-89
2023/04/08 11:58:47;;;;;;;43.28;24.42;;;;;;;;;;5075391;28;20073;-88
2023/04/08 12:01:13;;;;;;;42.63;25.15;;;;;;;;;;5062514;28;20496;-87
2023/04/08 12:03:38;;;;;;;45.40;26.80;;;;;;;;;;5084085;28;20033;-93
2023/04/08 12:06:08;;;;;;;48.45;27.95;;;;;;;;;;5057214;28;20036;-93
2023/04/08 12:08:33;;;;;;;52.85;30.05;;;;;;;;;;5074844;28;20024;-89
2023/04/08 12:10:59;;;;;;;50.70;29.33;;;;;;;;;;5074517;28;20191;-91
2023/04/08 12:13:24;;;;;;;51.35;29.05;;;;;;;;;;5076439;28;20028;-88
2023/04/08 12:15:50;;;;;;;53.05;28.48;;;;;;;;;;5076486;28;20020;-86
2023/04/08 12:18:15;;;;;;;52.55;28.85;;;;;;;;;;5094423;28;20019;-89
2023/04/08 12:20:41;;;;;;;55.40;31.88;;;;;;;;;;5077824;28;20377;-90
2023/04/08 12:23:06;;;;;;;56.42;31.63;;;;;;;;;;5102531;28;20024;-85
2023/04/08 12:25:32;;;;;;;60.47;32.72;;;;;;;;;;5097240;28;20027;-87
2023/04/08 12:27:57;;;;;;;57.35;31.55;;;;;;;;;;5096498;28;20036;-90
2023/04/08 12:30:23;;;;;;;63.22;33.05;;;;;;;;;;5094984;28;20385;-90
2023/04/08 12:32:48;;;;;;;67.40;33.25;;;;;;;;;;5094286;28;20449;-91
2023/04/08 12:35:14;;;;;;;62.22;32.08;;;;;;;;;;5094784;28;20043;-92
2023/04/08 12:37:39;;;;;;;63.90;32.38;;;;;;;;;;5076925;28;20377;-85
2023/04/08 12:40:06;;;;;;;58.83;31.48;;;;;;;;;;5078143;28;20040;-89
2023/04/08 12:42:32;;;;;;;57.47;31.52;;;;;;;;;;5077601;28;20133;-90
2023/04/08 12:44:57;;;;;;;60.95;32.30;;;;;;;;;;5059383;28;20028;-87
2023/04/08 12:47:22;;;;;;;60.33;31.05;;;;;;;;;;5094381;28;20038;-91
2023/04/08 12:49:48;;;;;;;59.78;31.80;;;;;;;;;;5076370;28;20429;-90
2023/04/08 12:52:14;;;;;;;61.17;30.52;;;;;;;;;;5094379;28;20024;-90
2023/04/08 12:54:39;;;;;;;61.88;31.42;;;;;;;;;;5075960;28;20024;-90
2023/04/08 12:57:05;;;;;;;69.32;32.63;;;;;;;;;;5095100;28;20024;-89
2023/04/08 12:59:32;;;;;;;66.60;33.00;;;;;;;;;;5095251;28;20047;-87
2023/04/08 13:01:57;;;;;;;61.03;31.70;;;;;;;;;;5086562;28;20058;-91
2023/04/08 13:04:23;;;;;;;61.08;30.30;;;;;;;;;;5100611;28;20035;-86
2023/04/08 13:06:48;;;;;;;63.95;30.38;;;;;;;;;;5123245;28;20062;-92
2023/04/08 13:09:14;;;;;;;68.10;32.92;;;;;;;;;;5091164;28;20066;-88
2023/04/08 13:11:39;;;;;;;71.70;34.65;;;;;;;;;;5076258;28;20463;-94
2023/04/08 13:14:05;;;;;;;61.80;32.40;;;;;;;;;;5073629;28;20024;-94
2023/04/08 13:16:30;;;;;;;70.88;34.47;;;;;;;;;;5094082;28;20109;-89
2023/04/08 13:18:56;;;;;;;81.45;36.30;;;;;;;;;;5077531;28;20485;-88
2023/04/08 13:21:21;;;;;;;63.85;31.38;;;;;;;;;;5100114;28;20032;-88
2023/04/08 13:23:47;;;;;;;72.05;34.45;;;;;;;;;;5097945;28;20035;-88
2023/04/08 13:26:12;;;;;;;71.50;34.53;;;;;;;;;;5112040;28;20035;-85
2023/04/08 13:28:38;;;;;;;69.68;34.25;;;;;;;;;;5099223;28;20032;-90
2023/04/08 13:31:03;;;;;;;75.65;34.35;;;;;;;;;;5098037;28;20032;-89
2023/04/08 13:33:29;;;;;;;75.38;33.78;;;;;;;;;;5097979;28;20020;-90
2023/04/08 13:35:55;;;;;;;77.78;33.83;;;;;;;;;;5079860;28;20028;-92
2023/04/08 13:38:21;;;;;;;72.32;34.78;;;;;;;;;;5097872;28;20085;-87
2023/04/08 13:40:46;;;;;;;71.50;34.38;;;;;;;;;;5065081;28;20047;-90
2023/04/08 13:43:11;;;;;;;70.15;32.92;;;;;;;;;;5097369;28;20036;-86
2023/04/08 13:45:37;;;;;;;84.20;34.90;;;;;;;;;;5079719;28;20035;-87
2023/04/08 13:48:03;;;;;;;76.13;34.47;;;;;;;;;;5111870;28;20040;-88
2023/04/08 13:50:29;;;;;;;75.07;35.67;;;;;;;;;;5063812;28;20112;-89
2023/04/08 13:52:55;;;;;;;75.38;35.08;;;;;;;;;;5098067;28;20338;-90
2023/04/08 13:55:21;;;;;;;72.65;35.20;;;;;;;;;;5100875;28;20717;-85
2023/04/08 13:57:46;;;;;;;73.10;34.38;;;;;;;;;;5097627;28;20028;-87
2023/04/08 14:00:12;;;;;;;86.57;40.05;;;;;;;;;;5084927;28;20116;-91
2023/04/08 14:02:38;;;;;;;74.00;35.63;;;;;;;;;;5097228;28;20113;-87
2023/04/08 14:05:03;;;;;;;80.72;35.97;;;;;;;;;;5085995;28;20031;-85
2023/04/08 14:07:29;;;;;;;78.38;36.55;;;;;;;;;;5119797;28;20047;-85
2023/04/08 14:09:54;;;;;;;80.72;37.15;;;;;;;;;;5113514;28;20083;-84